EDFM METAR and TAF | Updated Today

EDFM METAR

Mannheim-City Airport

Observation time: 2:55 hr. ago

EDFM 031950Z 18008KT 150V220 9999 BKN036 OVC042 04/M01 Q1009

Need help? Read our tutorial on how to read METARs or read the parsed version below.

Mannheim-City Airport (EDFM) METAR

  • Weather conditions on Fri, 03 Dec 2021 19:50:00 +0000 (2:55 hr. ago):
  • Present conditions: Dry
  • Clouds: Broken sky at 1097 meters; overcast sky at 1280 meters
  • Visibility: Greater than 10 km
  • Wind: 180 degrees at 8 knots
  • Temperature: 4 celsius
  • Dew point: -1 celsius
  • Pressure: 1009 millibars
  • Remarks: None


Useful to know...

EDFM TAF

Mannheim-City Airport

TAF EDFM 031700Z 0318/0321 18007KT 9999 FEW030
Observation time: 5:45 hr. ago
Need help? Read our tutorial on how to read TAFs or read the parsed version below.

Parsed version of TAF for Mannheim-City Airport (EDFM)

  • From 03 December at 18:00 UTC, to day 03 of the month at 21:00 UTC
  • Clouds: A few at 914 meters
  • Visibility: Greater than 10 km
  • Wind: 180 degrees at 7